createdAt,value
2019-04-14T00:00:45.470Z,73.85
2019-04-14T00:03:34.726Z,73.92
2019-04-14T00:06:06.966Z,73.85
2019-04-14T00:08:37.254Z,73.93
2019-04-14T00:11:08.496Z,73.86
2019-04-14T00:13:39.249Z,73.79
2019-04-14T00:16:09.603Z,73.95
2019-04-14T00:18:40.499Z,73.97
2019-04-14T00:21:10.902Z,73.85
2019-04-14T00:23:42.069Z,73.91
2019-04-14T00:26:31.919Z,74.02
2019-04-14T00:29:02.668Z,74.32
2019-04-14T00:31:33.426Z,74.42
2019-04-14T00:34:07.472Z,74.50
2019-04-14T00:36:59.399Z,74.59
2019-04-14T00:39:33.836Z,74.87
2019-04-14T00:42:14.816Z,75.12
2019-04-14T00:44:51.814Z,75.10
2019-04-14T00:47:25.186Z,75.18
2019-04-14T00:49:55.433Z,75.36
2019-04-14T00:52:27.506Z,75.44
2019-04-14T00:54:58.733Z,75.47
2019-04-14T00:57:29.093Z,75.44
2019-04-14T00:59:59.603Z,75.92
2019-04-14T01:02:29.746Z,76.05
2019-04-14T01:05:00.134Z,76.05
2019-04-14T01:07:30.550Z,76.06
2019-04-14T01:10:01.821Z,75.92
2019-04-14T01:12:32.153Z,75.77
2019-04-14T01:15:03.082Z,75.47
2019-04-14T01:17:35.242Z,75.28
2019-04-14T01:20:05.790Z,75.11
2019-04-14T01:22:35.938Z,74.91
2019-04-14T01:25:08.465Z,74.66
2019-04-14T01:27:39.212Z,74.33
2019-04-14T01:30:11.079Z,74.04
2019-04-14T01:32:41.559Z,73.90
2019-04-14T01:35:12.033Z,73.69
2019-04-14T01:37:41.972Z,73.43
2019-04-14T01:40:12.191Z,73.29
2019-04-14T01:42:42.367Z,73.15
2019-04-14T01:45:14.503Z,72.94
2019-04-14T01:47:44.692Z,72.79
2019-04-14T01:50:15.621Z,72.71
2019-04-14T01:52:57.409Z,72.71
2019-04-14T01:55:52.756Z,73.00
2019-04-14T01:58:27.779Z,73.31
2019-04-14T02:01:14.981Z,73.37
2019-04-14T02:03:47.671Z,73.63
2019-04-14T02:06:20.320Z,73.99
2019-04-14T02:08:52.215Z,73.94
2019-04-14T02:11:24.784Z,74.12
2019-04-14T02:13:57.216Z,74.22
2019-04-14T02:16:34.831Z,74.28
2019-04-14T02:19:00.346Z,74.38
2019-04-14T02:21:30.750Z,74.24
2019-04-14T02:24:00.571Z,74.18
2019-04-14T02:26:31.072Z,74.24
2019-04-14T02:29:01.444Z,74.45
2019-04-14T02:31:53.459Z,74.33
2019-04-14T02:34:34.715Z,74.48
2019-04-14T02:37:05.353Z,74.47
2019-04-14T02:39:48.513Z,74.67
2019-04-14T02:44:46.123Z,74.62
2019-04-14T02:47:36.400Z,74.75
2019-04-14T02:49:49.436Z,74.80
2019-04-14T02:52:20.670Z,74.79
2019-04-14T02:54:51.674Z,74.91
2019-04-14T02:57:23.090Z,74.99
2019-04-14T02:59:50.693Z,75.12
2019-04-14T03:02:30.361Z,75.15
2019-04-14T03:05:02.464Z,75.18
2019-04-14T03:10:16.315Z,75.43
2019-04-14T03:15:01.311Z,75.58
2019-04-14T03:17:58.248Z,75.57
2019-04-14T03:25:44.195Z,75.24
2019-04-14T03:34:08.254Z,75.24
2019-04-14T03:36:44.201Z,75.34
2019-04-14T03:41:25.903Z,75.20
2019-04-14T03:43:41.004Z,75.16
2019-04-14T03:46:25.563Z,75.30
2019-04-14T03:51:31.442Z,75.06
2019-04-14T03:53:51.963Z,75.06
2019-04-14T03:56:38.363Z,75.12
2019-04-14T03:59:08.497Z,75.10
2019-04-14T04:01:39.157Z,75.15
2019-04-14T04:04:11.907Z,75.12
2019-04-14T04:06:42.455Z,75.09
2019-04-14T04:09:12.792Z,75.04
2019-04-14T04:11:43.476Z,75.15
2019-04-14T04:14:13.967Z,75.17
2019-04-14T04:17:18.964Z,75.24
2019-04-14T04:19:57.741Z,75.21
2019-04-14T04:23:00.853Z,75.20
2019-04-14T04:26:02.466Z,75.23
2019-04-14T04:28:54.451Z,75.22
2019-04-14T04:31:50.601Z,75.31
2019-04-14T04:34:29.433Z,75.35
2019-04-14T04:37:25.674Z,75.20
2019-04-14T04:39:56.197Z,75.33
2019-04-14T04:42:26.569Z,75.13
2019-04-14T04:44:57.446Z,74.98
2019-04-14T04:47:28.009Z,74.90
2019-04-14T04:49:57.999Z,74.84
2019-04-14T04:52:28.134Z,74.80
2019-04-14T04:54:58.314Z,74.67
2019-04-14T04:57:28.604Z,74.45
2019-04-14T04:59:58.450Z,74.34
2019-04-14T05:02:28.776Z,74.31
2019-04-14T05:04:59.140Z,74.15
2019-04-14T05:07:29.550Z,74.13
2019-04-14T05:10:19.553Z,73.97
2019-04-14T05:13:05.273Z,74.00
2019-04-14T05:15:48.902Z,73.89
2019-04-14T05:18:24.665Z,73.68
2019-04-14T05:20:55.464Z,73.41
2019-04-14T05:23:26.048Z,73.20
2019-04-14T05:25:56.324Z,73.07
2019-04-14T05:28:26.799Z,73.02
2019-04-14T05:30:57.009Z,72.94
2019-04-14T05:33:27.193Z,72.72
2019-04-14T05:35:59.984Z,72.65
2019-04-14T05:38:32.232Z,72.64
2019-04-14T05:41:02.705Z,72.51
2019-04-14T05:43:41.558Z,72.63
2019-04-14T05:46:05.604Z,72.65
2019-04-14T05:48:35.792Z,72.58
2019-04-14T05:51:06.464Z,72.45
2019-04-14T05:53:37.239Z,72.35
2019-04-14T05:56:08.024Z,72.14
2019-04-14T05:58:38.717Z,72.18
2019-04-14T06:01:11.318Z,72.10
2019-04-14T06:03:41.530Z,71.82
2019-04-14T06:06:11.713Z,71.68
2019-04-14T06:08:41.596Z,71.49
2019-04-14T06:11:11.940Z,71.39
2019-04-14T06:13:42.818Z,71.22
2019-04-14T06:16:12.648Z,71.21
2019-04-14T06:18:42.734Z,70.93
2019-04-14T06:21:12.578Z,70.58
2019-04-14T06:23:42.615Z,70.34
2019-04-14T06:26:12.932Z,70.05
2019-04-14T06:28:43.293Z,69.99
2019-04-14T06:31:30.665Z,69.80
2019-04-14T06:34:17.483Z,69.51
2019-04-14T06:37:04.893Z,69.02
2019-04-14T06:39:42.004Z,68.38
2019-04-14T06:42:11.970Z,67.64
2019-04-14T06:44:42.517Z,67.20
2019-04-14T06:47:12.862Z,66.61
2019-04-14T06:49:48.749Z,66.21
2019-04-14T06:52:14.376Z,65.54
2019-04-14T06:54:44.477Z,65.21
2019-04-14T06:57:14.329Z,64.23
2019-04-14T06:59:44.470Z,63.46
2019-04-14T07:02:14.900Z,62.64
2019-04-14T07:04:45.558Z,62.36
2019-04-14T07:07:15.404Z,62.03
2019-04-14T07:09:45.795Z,61.67
2019-04-14T07:12:16.248Z,61.31
2019-04-14T07:14:46.457Z,61.09
2019-04-14T07:17:16.726Z,61.09
2019-04-14T07:19:47.434Z,60.57
2019-04-14T07:22:17.629Z,59.92
2019-04-14T07:24:48.232Z,59.26
2019-04-14T07:27:18.079Z,58.78
2019-04-14T07:29:53.559Z,58.51
2019-04-14T07:32:45.889Z,58.20
2019-04-14T07:35:37.567Z,57.46
2019-04-14T07:38:29.507Z,56.84
2019-04-14T07:41:27.733Z,56.56
2019-04-14T07:44:19.830Z,56.35
2019-04-14T07:51:52.689Z,55.30
2019-04-14T07:58:24.541Z,55.92
2019-04-14T08:05:45.124Z,57.01
2019-04-14T08:09:24.513Z,58.31
2019-04-14T08:11:55.281Z,58.50
2019-04-14T08:14:25.728Z,59.30
2019-04-14T08:16:56.828Z,59.72
2019-04-14T08:19:33.540Z,60.07
2019-04-14T08:22:03.054Z,60.25
2019-04-14T08:24:33.249Z,60.24
2019-04-14T08:27:03.685Z,60.34
2019-04-14T08:29:36.966Z,60.42
2019-04-14T08:32:07.684Z,60.58
2019-04-14T08:34:38.421Z,60.72
2019-04-14T08:37:08.690Z,60.94
2019-04-14T08:39:40.187Z,61.17
2019-04-14T08:42:30.038Z,61.44
2019-04-14T08:45:06.863Z,61.69
2019-04-14T08:47:50.178Z,61.92
2019-04-14T08:50:39.569Z,62.06
2019-04-14T08:53:23.717Z,62.06
2019-04-14T08:56:17.283Z,62.11
2019-04-14T08:59:13.884Z,62.22
2019-04-14T09:02:05.126Z,62.41
2019-04-14T09:04:44.734Z,62.53
2019-04-14T09:07:27.288Z,62.80
2019-04-14T09:10:07.142Z,63.29
2019-04-14T09:12:42.779Z,63.70
2019-04-14T09:15:13.262Z,64.23
2019-04-14T09:17:44.221Z,64.66
2019-04-14T09:20:15.707Z,65.10
2019-04-14T09:22:45.601Z,65.86
2019-04-14T09:25:16.003Z,66.39
2019-04-14T09:27:45.899Z,66.70
2019-04-14T09:30:16.568Z,66.99
2019-04-14T09:32:46.684Z,67.19
2019-04-14T09:35:16.543Z,67.35
2019-04-14T09:37:46.519Z,67.56
2019-04-14T09:40:16.743Z,67.64
2019-04-14T09:42:46.584Z,67.81
2019-04-14T09:45:16.502Z,68.08
2019-04-14T09:47:47.069Z,68.23
2019-04-14T09:50:16.975Z,68.27
2019-04-14T09:52:46.906Z,68.25
2019-04-14T09:55:17.165Z,68.22
2019-04-14T09:57:47.198Z,68.07
2019-04-14T10:00:17.462Z,68.12
2019-04-14T10:02:47.645Z,67.93
2019-04-14T10:05:17.740Z,67.88
2019-04-14T10:07:47.596Z,67.94
2019-04-14T10:10:20.493Z,68.19
2019-04-14T10:12:51.670Z,68.23
2019-04-14T10:15:22.433Z,68.28
2019-04-14T10:17:52.935Z,68.22
2019-04-14T10:20:23.660Z,67.93
2019-04-14T10:22:53.648Z,67.85
2019-04-14T10:25:24.738Z,67.94
2019-04-14T10:27:55.878Z,67.65
2019-04-14T10:30:25.796Z,67.73
2019-04-14T10:32:57.808Z,67.75
2019-04-14T10:35:27.754Z,67.78
2019-04-14T10:37:58.518Z,67.71
2019-04-14T10:40:29.774Z,67.89
2019-04-14T10:43:01.015Z,68.46
2019-04-14T10:45:31.403Z,68.66
2019-04-14T10:48:03.845Z,68.64
2019-04-14T10:50:34.009Z,68.50
2019-04-14T10:53:04.561Z,68.68
2019-04-14T10:55:34.945Z,68.58
2019-04-14T10:58:08.542Z,68.77
2019-04-14T11:00:39.279Z,68.66
2019-04-14T11:03:09.283Z,68.57
2019-04-14T11:05:47.805Z,68.52
2019-04-14T11:08:18.578Z,68.68
2019-04-14T11:10:49.205Z,68.75
2019-04-14T11:13:19.576Z,68.55
2019-04-14T11:15:50.022Z,68.50
2019-04-14T11:18:21.443Z,68.09
2019-04-14T11:20:51.403Z,67.89
2019-04-14T11:23:21.713Z,67.79
2019-04-14T11:25:54.497Z,67.66
2019-04-14T11:28:25.154Z,68.35
2019-04-14T11:30:56.754Z,68.56
2019-04-14T11:33:58.305Z,68.93
2019-04-14T11:36:47.434Z,69.13
2019-04-14T11:39:18.420Z,69.01
2019-04-14T11:41:56.001Z,68.94
2019-04-14T11:44:27.222Z,68.68
2019-04-14T11:46:57.615Z,68.66
2019-04-14T11:49:28.443Z,68.50
2019-04-14T11:51:58.913Z,67.96
2019-04-14T11:54:30.036Z,67.96
2019-04-14T11:57:00.555Z,68.22
2019-04-14T11:59:39.632Z,67.54
2019-04-14T12:02:17.513Z,67.54
2019-04-14T12:04:55.614Z,67.45
2019-04-14T12:07:43.827Z,67.20
2019-04-14T12:10:18.181Z,67.70
2019-04-14T12:12:53.624Z,67.83
2019-04-14T12:15:25.573Z,67.83
2019-04-14T12:17:56.321Z,67.72
2019-04-14T12:20:26.416Z,67.32
2019-04-14T12:23:02.005Z,67.39
2019-04-14T12:25:33.590Z,67.05
2019-04-14T12:28:07.541Z,67.05
2019-04-14T12:30:39.905Z,67.00
2019-04-14T12:33:11.465Z,67.55
2019-04-14T12:35:42.319Z,67.75
2019-04-14T12:38:14.123Z,68.02
2019-04-14T12:40:45.245Z,68.29
2019-04-14T12:43:37.696Z,68.29
2019-04-14T12:46:33.911Z,67.99
2019-04-14T12:49:23.810Z,68.18
2019-04-14T12:52:21.072Z,69.00
2019-04-14T12:54:43.614Z,69.38
2019-04-14T12:57:14.414Z,69.34
2019-04-14T12:59:44.470Z,69.57
2019-04-14T13:02:20.629Z,69.48
2019-04-14T13:04:50.655Z,69.48
2019-04-14T13:07:21.100Z,69.71
2019-04-14T13:09:51.260Z,70.03
2019-04-14T13:12:21.866Z,70.34
2019-04-14T13:14:55.293Z,70.22
2019-04-14T13:17:26.455Z,68.91
2019-04-14T13:19:57.431Z,68.91
2019-04-14T13:22:33.842Z,67.50
2019-04-14T13:24:59.824Z,66.53
2019-04-14T13:27:29.714Z,66.53
2019-04-14T13:30:01.934Z,67.22
2019-04-14T13:32:36.185Z,67.22
2019-04-14T13:35:09.963Z,67.04
2019-04-14T13:37:42.115Z,67.04
2019-04-14T13:40:12.666Z,67.38
2019-04-14T13:42:42.721Z,67.07
2019-04-14T13:45:24.062Z,67.60
2019-04-14T13:47:54.660Z,68.11
2019-04-14T13:50:26.277Z,68.82
2019-04-14T13:52:56.103Z,69.16
2019-04-14T13:55:26.029Z,69.13
2019-04-14T13:57:57.112Z,69.31
2019-04-14T14:00:27.733Z,69.80
2019-04-14T14:02:58.245Z,70.05
2019-04-14T14:05:29.088Z,70.32
2019-04-14T14:07:59.211Z,70.25
2019-04-14T14:10:31.310Z,70.46
2019-04-14T14:13:23.898Z,70.62
2019-04-14T14:16:30.890Z,70.40
2019-04-14T14:19:08.754Z,70.25
2019-04-14T14:21:46.578Z,70.52
2019-04-14T14:24:31.657Z,70.87
2019-04-14T14:27:05.419Z,70.97
2019-04-14T14:29:35.958Z,70.96
2019-04-14T14:32:16.896Z,70.88
2019-04-14T14:34:47.330Z,71.24
2019-04-14T14:37:17.565Z,71.35
2019-04-14T14:39:47.812Z,71.23
2019-04-14T14:42:20.172Z,71.59
2019-04-14T14:44:56.783Z,71.65
2019-04-14T14:47:29.443Z,71.69
2019-04-14T14:50:27.799Z,71.80
2019-04-14T14:52:57.868Z,71.84
2019-04-14T14:55:28.456Z,71.62
2019-04-14T14:57:58.614Z,71.68
2019-04-14T15:00:35.191Z,71.84
2019-04-14T15:03:06.173Z,71.77
2019-04-14T15:05:41.545Z,71.80
2019-04-14T15:08:11.693Z,71.80
2019-04-14T15:10:43.418Z,71.41
2019-04-14T15:13:17.270Z,71.30
2019-04-14T15:15:47.881Z,71.43
2019-04-14T15:18:19.005Z,71.55
2019-04-14T15:20:52.089Z,71.37
2019-04-14T15:23:25.366Z,71.19
2019-04-14T15:25:58.149Z,70.90
2019-04-14T15:28:31.211Z,70.97
2019-04-14T15:31:01.518Z,70.50
2019-04-14T15:33:37.165Z,70.40
2019-04-14T15:36:11.184Z,70.22
2019-04-14T15:38:45.585Z,70.18
2019-04-14T15:41:18.390Z,70.42
2019-04-14T15:43:48.626Z,70.50
2019-04-14T15:46:18.915Z,70.50
2019-04-14T15:48:50.055Z,70.65
2019-04-14T15:51:20.345Z,70.70
2019-04-14T15:53:50.800Z,70.83
2019-04-14T15:56:48.825Z,70.93
2019-04-14T15:59:40.820Z,71.14
2019-04-14T16:02:32.863Z,71.28
2019-04-14T16:05:12.688Z,71.58
2019-04-14T16:08:07.361Z,71.68
2019-04-14T16:10:42.518Z,71.71
2019-04-14T16:13:16.871Z,71.70
2019-04-14T16:15:59.160Z,71.86
2019-04-14T16:18:44.845Z,72.14
2019-04-14T16:21:15.150Z,72.79
2019-04-14T16:23:50.641Z,73.26
2019-04-14T16:26:25.792Z,73.55
2019-04-14T16:29:13.486Z,74.15
2019-04-14T16:32:00.783Z,74.68
2019-04-14T16:34:43.106Z,75.27
2019-04-14T16:37:13.343Z,75.62
2019-04-14T16:39:43.686Z,76.10
2019-04-14T16:42:13.827Z,76.68
2019-04-14T16:44:43.945Z,76.96
2019-04-14T16:47:14.329Z,77.17
2019-04-14T16:49:44.311Z,77.49
2019-04-14T16:52:37.280Z,77.61
2019-04-14T16:55:30.071Z,77.90
2019-04-14T16:58:35.184Z,78.12
2019-04-14T17:01:10.348Z,78.20
2019-04-14T17:03:44.179Z,78.27
2019-04-14T17:06:15.514Z,78.44
2019-04-14T17:08:48.159Z,78.58
2019-04-14T17:11:21.254Z,78.58
2019-04-14T17:14:12.185Z,78.64
2019-04-14T17:17:04.379Z,78.47
2019-04-14T17:19:57.426Z,78.60
2019-04-14T17:23:08.460Z,78.66
2019-04-14T17:26:03.314Z,78.57
2019-04-14T17:28:45.974Z,78.52
2019-04-14T17:31:36.470Z,78.45
2019-04-14T17:34:30.014Z,78.50
2019-04-14T17:37:17.277Z,78.46
2019-04-14T17:40:03.372Z,78.30
2019-04-14T17:42:49.061Z,78.35
2019-04-14T17:45:30.349Z,78.34
2019-04-14T17:48:14.672Z,78.25
2019-04-14T17:51:12.983Z,78.08
2019-04-14T17:53:48.903Z,78.01
2019-04-14T17:56:35.039Z,78.06
2019-04-14T17:59:14.775Z,78.10
2019-04-14T18:02:03.962Z,78.04
2019-04-14T18:05:05.495Z,78.17
2019-04-14T18:07:45.683Z,77.97
2019-04-14T18:10:37.709Z,77.88
2019-04-14T18:13:20.763Z,77.81
2019-04-14T18:16:20.631Z,77.92
2019-04-14T18:19:12.112Z,78.00
2019-04-14T18:21:47.633Z,77.95
2019-04-14T18:24:19.253Z,77.96
2019-04-14T18:26:50.365Z,77.99
2019-04-14T18:29:49.325Z,78.06
2019-04-14T18:32:25.076Z,78.04
2019-04-14T18:35:07.204Z,77.94
2019-04-14T18:38:14.933Z,77.96
2019-04-14T18:41:00.360Z,77.79
2019-04-14T18:44:00.648Z,77.75
2019-04-14T18:46:40.916Z,77.59
2019-04-14T18:49:24.756Z,77.82
2019-04-14T18:52:19.152Z,77.87
2019-04-14T18:55:17.458Z,78.00
2019-04-14T18:58:00.024Z,78.05
2019-04-14T19:00:45.654Z,78.01
2019-04-14T19:03:19.211Z,78.02
2019-04-14T19:05:53.676Z,77.89
2019-04-14T19:08:25.372Z,78.01
2019-04-14T19:11:09.059Z,78.00
2019-04-14T19:13:42.193Z,78.00
2019-04-14T19:16:38.185Z,78.06
2019-04-14T19:19:04.175Z,78.06
2019-04-14T19:21:36.065Z,78.06
2019-04-14T19:24:07.651Z,78.05
2019-04-14T19:26:40.820Z,78.02
2019-04-14T19:29:17.175Z,77.77
2019-04-14T19:31:51.786Z,77.90
2019-04-14T19:34:25.549Z,77.83
2019-04-14T19:36:56.857Z,77.78
2019-04-14T19:39:28.698Z,77.72
2019-04-14T19:42:02.912Z,77.70
2019-04-14T19:44:34.744Z,77.65
2019-04-14T19:47:06.469Z,77.58
2019-04-14T19:49:38.233Z,77.55
2019-04-14T19:52:11.951Z,77.57
2019-04-14T19:54:45.386Z,77.55
2019-04-14T19:57:21.175Z,77.37
2019-04-14T19:59:59.732Z,77.38
2019-04-14T20:02:36.643Z,77.42
2019-04-14T20:05:10.447Z,77.20
2019-04-14T20:07:42.671Z,77.37
2019-04-14T20:10:14.547Z,77.39
2019-04-14T20:12:48.013Z,77.29
2019-04-14T20:15:25.442Z,77.21
2019-04-14T20:18:19.616Z,77.01
2019-04-14T20:21:10.135Z,76.88
2019-04-14T20:23:54.505Z,76.82
2019-04-14T20:26:33.421Z,76.71
2019-04-14T20:29:17.201Z,76.65
2019-04-14T20:32:08.412Z,76.61
2019-04-14T20:34:39.848Z,76.60
2019-04-14T20:37:12.197Z,76.67
2019-04-14T20:39:45.751Z,76.79
2019-04-14T20:42:18.769Z,76.80
2019-04-14T20:44:51.876Z,76.88
2019-04-14T20:47:38.318Z,76.87
2019-04-14T20:50:08.336Z,76.72
2019-04-14T20:52:40.073Z,76.65
2019-04-14T20:55:11.888Z,76.63
2019-04-14T20:57:44.449Z,76.61
2019-04-14T21:00:15.612Z,76.60
2019-04-14T21:03:27.365Z,76.82
2019-04-14T21:06:29.681Z,76.82
2019-04-14T21:09:12.982Z,76.41
2019-04-14T21:12:02.171Z,76.40
2019-04-14T21:14:45.507Z,76.45
2019-04-14T21:17:28.128Z,76.64
2019-04-14T21:20:19.397Z,76.89
2019-04-14T21:23:18.363Z,76.90
2019-04-14T21:26:11.106Z,76.90
2019-04-14T21:29:00.312Z,76.80
2019-04-14T21:31:43.874Z,76.77
2019-04-14T21:34:27.197Z,76.61
2019-04-14T21:37:16.693Z,76.63
2019-04-14T21:39:52.185Z,76.76
2019-04-14T21:42:34.808Z,76.85
2019-04-14T21:45:13.050Z,76.95
2019-04-14T21:47:46.199Z,76.91
2019-04-14T21:50:16.655Z,77.17
2019-04-14T21:52:49.801Z,77.35
2019-04-14T21:55:23.427Z,77.39
2019-04-14T21:58:19.429Z,77.25
2019-04-14T22:01:48.910Z,77.26
2019-04-14T22:04:38.234Z,77.72
2019-04-14T22:07:30.502Z,77.72
2019-04-14T22:10:13.301Z,77.43
2019-04-14T22:12:45.615Z,77.48
2019-04-14T22:15:17.773Z,77.47
2019-04-14T22:17:51.489Z,77.53
2019-04-14T22:20:22.557Z,77.62
2019-04-14T22:22:58.342Z,77.62
2019-04-14T22:25:29.744Z,77.37
2019-04-14T22:28:00.228Z,77.29
2019-04-14T22:30:31.419Z,77.15
2019-04-14T22:33:05.943Z,77.09
2019-04-14T22:35:37.869Z,77.10
2019-04-14T22:38:09.289Z,77.20
2019-04-14T22:40:40.555Z,77.30
2019-04-14T22:43:11.593Z,77.36
2019-04-14T22:45:42.517Z,77.30
2019-04-14T22:48:14.389Z,77.19
2019-04-14T22:50:45.879Z,77.13
2019-04-14T22:53:16.261Z,77.24
2019-04-14T22:55:49.724Z,77.18
2019-04-14T22:58:21.959Z,77.13
2019-04-14T23:01:10.826Z,77.33
2019-04-14T23:03:52.170Z,77.45
2019-04-14T23:06:39.978Z,77.27
2019-04-14T23:09:30.601Z,77.06
2019-04-14T23:12:18.798Z,76.90
2019-04-14T23:14:54.012Z,76.72
2019-04-14T23:17:50.999Z,76.83
2019-04-14T23:20:39.974Z,76.79
2019-04-14T23:23:29.540Z,76.77
2019-04-14T23:26:00.887Z,76.78
2019-04-14T23:28:31.929Z,76.80
2019-04-14T23:31:02.332Z,76.94
2019-04-14T23:33:32.947Z,77.01
2019-04-14T23:36:04.410Z,77.02
2019-04-14T23:38:36.838Z,76.94
2019-04-14T23:41:08.562Z,77.01
2019-04-14T23:43:39.403Z,77.13
2019-04-14T23:46:09.351Z,77.23
2019-04-14T23:48:41.230Z,77.25
2019-04-14T23:51:11.463Z,77.24
2019-04-14T23:53:42.327Z,77.30
2019-04-14T23:56:13.907Z,77.49
2019-04-14T23:58:44.685Z,77.68
